createdAt,value
2019-03-25T00:00:50.342Z,59.67
2019-03-25T00:03:21.516Z,59.75
2019-03-25T00:05:52.610Z,59.75
2019-03-25T00:08:23.753Z,59.82
2019-03-25T00:10:54.759Z,59.92
2019-03-25T00:13:25.907Z,60.25
2019-03-25T00:15:57.151Z,60.66
2019-03-25T00:18:29.248Z,61.03
2019-03-25T00:21:00.291Z,61.40
2019-03-25T00:23:31.326Z,61.58
2019-03-25T00:26:02.401Z,61.88
2019-03-25T00:28:33.465Z,62.00
2019-03-25T00:31:04.467Z,62.06
2019-03-25T00:33:35.520Z,62.39
2019-03-25T00:36:06.539Z,62.55
2019-03-25T00:38:37.562Z,62.69
2019-03-25T00:41:08.677Z,62.55
2019-03-25T00:43:39.780Z,62.70
2019-03-25T00:46:10.908Z,62.59
2019-03-25T00:48:42.016Z,62.62
2019-03-25T00:51:13.252Z,62.82
2019-03-25T00:53:44.399Z,62.53
2019-03-25T00:56:15.543Z,62.71
2019-03-25T00:58:46.693Z,62.85
2019-03-25T01:01:17.950Z,62.73
2019-03-25T01:03:49.021Z,63.01
2019-03-25T01:06:20.258Z,62.86
2019-03-25T01:08:51.426Z,63.00
2019-03-25T01:11:22.556Z,62.83
2019-03-25T01:13:53.981Z,62.76
2019-03-25T01:16:25.051Z,62.44
2019-03-25T01:18:56.356Z,62.45
2019-03-25T01:21:27.434Z,62.83
2019-03-25T01:23:58.487Z,62.82
2019-03-25T01:26:29.599Z,62.88
2019-03-25T01:29:00.891Z,63.35
2019-03-25T01:31:31.981Z,63.17
2019-03-25T01:34:03.072Z,63.12
2019-03-25T01:36:34.220Z,63.49
2019-03-25T01:39:06.329Z,63.39
2019-03-25T01:41:37.414Z,63.46
2019-03-25T01:44:08.468Z,63.52
2019-03-25T01:46:39.495Z,63.04
2019-03-25T01:49:10.537Z,63.27
2019-03-25T01:51:41.507Z,63.22
2019-03-25T01:54:13.557Z,63.24
2019-03-25T01:56:44.663Z,63.59
2019-03-25T01:59:15.725Z,63.87
2019-03-25T02:01:46.765Z,64.13
2019-03-25T02:04:17.912Z,64.24
2019-03-25T02:06:48.890Z,64.46
2019-03-25T02:09:19.992Z,63.87
2019-03-25T02:11:51.861Z,64.10
2019-03-25T02:14:22.909Z,64.58
2019-03-25T02:16:54.042Z,64.52
2019-03-25T02:19:25.354Z,64.63
2019-03-25T02:21:56.296Z,64.62
2019-03-25T02:24:27.489Z,65.29
2019-03-25T02:26:58.629Z,64.92
2019-03-25T02:29:29.588Z,64.75
2019-03-25T02:32:00.726Z,65.36
2019-03-25T02:34:31.696Z,66.72
2019-03-25T02:37:02.798Z,67.54
2019-03-25T02:39:33.993Z,68.19
2019-03-25T02:42:04.978Z,68.55
2019-03-25T02:44:36.013Z,69.13
2019-03-25T02:47:07.070Z,69.13
2019-03-25T02:49:38.096Z,69.67
2019-03-25T02:52:09.136Z,69.59
2019-03-25T02:54:40.104Z,69.30
2019-03-25T02:57:11.083Z,70.40
2019-03-25T02:59:42.053Z,70.92
2019-03-25T03:02:13.204Z,71.13
2019-03-25T03:04:44.245Z,71.69
2019-03-25T03:07:15.380Z,72.03
2019-03-25T03:09:46.375Z,72.10
2019-03-25T03:12:17.494Z,72.79
2019-03-25T03:14:48.514Z,72.74
2019-03-25T03:17:19.569Z,72.98
2019-03-25T03:19:50.722Z,72.81
2019-03-25T03:22:21.687Z,73.05
2019-03-25T03:24:52.783Z,73.24
2019-03-25T03:27:23.997Z,73.00
2019-03-25T03:29:55.074Z,72.92
2019-03-25T03:32:27.120Z,72.86
2019-03-25T03:34:58.204Z,72.81
2019-03-25T03:37:29.218Z,72.13
2019-03-25T03:40:00.657Z,71.51
2019-03-25T03:42:32.959Z,71.88
2019-03-25T03:45:06.155Z,72.55
2019-03-25T03:47:37.126Z,72.49
2019-03-25T03:50:08.291Z,72.46
2019-03-25T03:52:39.377Z,72.14
2019-03-25T03:55:10.395Z,71.56
2019-03-25T03:57:41.446Z,71.19
2019-03-25T04:00:15.817Z,70.78
2019-03-25T04:02:46.925Z,71.21
2019-03-25T04:05:17.898Z,70.98
2019-03-25T04:07:49.466Z,70.47
2019-03-25T04:10:21.585Z,70.03
2019-03-25T04:12:52.605Z,70.68
2019-03-25T04:15:28.483Z,70.28
2019-03-25T04:17:59.602Z,70.17
2019-03-25T04:20:30.596Z,70.26
2019-03-25T04:23:01.586Z,70.22
2019-03-25T04:25:32.659Z,70.24
2019-03-25T04:28:03.670Z,69.98
2019-03-25T04:30:34.729Z,69.74
2019-03-25T04:33:05.954Z,68.87
2019-03-25T04:35:37.012Z,68.72
2019-03-25T04:38:08.146Z,68.19
2019-03-25T04:40:40.332Z,68.17
2019-03-25T04:43:11.358Z,67.97
2019-03-25T04:45:42.399Z,67.33
2019-03-25T04:48:13.362Z,66.93
2019-03-25T04:50:44.469Z,66.64
2019-03-25T04:53:15.443Z,66.05
2019-03-25T04:55:46.551Z,65.99
2019-03-25T04:58:17.591Z,65.58
2019-03-25T05:00:48.639Z,65.18
2019-03-25T05:03:19.675Z,65.01
2019-03-25T05:05:50.760Z,64.58
2019-03-25T05:08:21.818Z,64.30
2019-03-25T05:10:53.017Z,65.58
2019-03-25T05:13:24.168Z,65.25
2019-03-25T05:15:55.201Z,64.91
2019-03-25T05:18:26.239Z,64.73
2019-03-25T05:20:57.294Z,65.02
2019-03-25T05:23:28.325Z,65.18
2019-03-25T05:25:59.431Z,64.73
2019-03-25T05:28:30.592Z,64.46
2019-03-25T05:31:01.583Z,64.68
2019-03-25T05:33:32.608Z,64.11
2019-03-25T05:36:03.632Z,63.54
2019-03-25T05:38:34.690Z,63.23
2019-03-25T05:41:05.667Z,62.82
2019-03-25T05:43:36.771Z,62.84
2019-03-25T05:46:07.982Z,62.42
2019-03-25T05:48:39.149Z,62.25
2019-03-25T05:51:10.291Z,62.17
2019-03-25T05:53:41.337Z,61.64
2019-03-25T05:56:12.381Z,61.14
2019-03-25T05:58:43.349Z,61.18
2019-03-25T06:01:14.503Z,60.80
2019-03-25T06:03:45.491Z,60.35
2019-03-25T06:06:16.551Z,60.33
2019-03-25T06:08:47.564Z,59.62
2019-03-25T06:11:18.624Z,59.19
2019-03-25T06:13:49.659Z,58.45
2019-03-25T06:16:20.724Z,58.27
2019-03-25T06:18:51.862Z,58.27
2019-03-25T06:21:23.001Z,58.22
2019-03-25T06:23:54.162Z,57.53
2019-03-25T06:26:25.306Z,56.31
2019-03-25T06:28:56.435Z,56.31
2019-03-25T06:31:27.488Z,56.14
2019-03-25T06:33:58.623Z,55.65
2019-03-25T06:36:29.805Z,54.26
2019-03-25T06:39:01.013Z,54.26
2019-03-25T06:41:32.148Z,53.11
2019-03-25T06:44:03.286Z,53.30
2019-03-25T06:46:34.464Z,53.58
2019-03-25T06:49:05.671Z,53.37
2019-03-25T06:51:36.718Z,52.81
2019-03-25T06:54:07.857Z,52.60
2019-03-25T06:56:38.957Z,52.36
2019-03-25T06:59:09.945Z,52.32
2019-03-25T07:01:41.106Z,51.83
2019-03-25T07:04:12.266Z,51.77
2019-03-25T07:06:43.469Z,51.55
2019-03-25T07:09:14.448Z,51.26
2019-03-25T07:11:45.524Z,50.45
2019-03-25T07:14:16.604Z,49.72
2019-03-25T07:16:47.827Z,49.47
2019-03-25T07:19:18.974Z,49.70
2019-03-25T07:21:50.057Z,49.50
2019-03-25T07:24:21.268Z,49.07
2019-03-25T07:26:52.428Z,49.16
2019-03-25T07:29:23.595Z,48.88
2019-03-25T07:31:54.828Z,49.08
2019-03-25T07:34:25.919Z,48.53
2019-03-25T07:36:57.117Z,48.28
2019-03-25T07:39:28.234Z,48.34
2019-03-25T07:41:59.253Z,48.35
2019-03-25T07:44:30.346Z,48.27
2019-03-25T07:47:01.490Z,47.75
2019-03-25T07:49:32.707Z,47.30
2019-03-25T07:52:03.701Z,47.13
2019-03-25T07:54:34.732Z,46.74
2019-03-25T07:57:05.760Z,46.66
2019-03-25T07:59:36.813Z,45.96
2019-03-25T08:02:07.808Z,45.03
2019-03-25T08:04:38.904Z,44.52
2019-03-25T08:07:10.213Z,43.62
2019-03-25T08:09:41.401Z,42.40
2019-03-25T08:12:12.658Z,41.66
2019-03-25T08:14:43.930Z,41.00
2019-03-25T08:17:15.021Z,39.97
2019-03-25T08:19:46.251Z,40.11
2019-03-25T08:22:17.365Z,40.13
2019-03-25T08:24:48.450Z,40.68
2019-03-25T08:27:20.403Z,40.17
2019-03-25T08:29:51.458Z,40.30
2019-03-25T08:32:22.532Z,40.52
2019-03-25T08:34:54.201Z,40.54
2019-03-25T08:37:25.416Z,40.12
2019-03-25T08:39:56.618Z,39.43
2019-03-25T08:42:27.730Z,39.10
2019-03-25T08:45:02.291Z,38.76
2019-03-25T08:47:33.627Z,38.99
2019-03-25T08:50:07.008Z,38.28
2019-03-25T08:52:38.149Z,38.11
2019-03-25T08:55:10.194Z,37.97
2019-03-25T08:57:41.481Z,37.80
2019-03-25T09:00:12.808Z,37.36
2019-03-25T09:02:43.890Z,36.66
2019-03-25T09:05:15.105Z,37.57
2019-03-25T09:07:46.135Z,37.71
2019-03-25T09:10:17.178Z,37.59
2019-03-25T09:12:48.322Z,37.48
2019-03-25T09:15:19.451Z,37.52
2019-03-25T09:17:50.608Z,37.31
2019-03-25T09:20:23.447Z,36.96
2019-03-25T09:22:54.681Z,36.72
2019-03-25T09:25:25.824Z,36.64
2019-03-25T09:27:57.972Z,36.44
2019-03-25T09:30:51.900Z,36.16
2019-03-25T09:33:23.050Z,36.54
2019-03-25T09:35:54.325Z,36.43
2019-03-25T09:38:25.567Z,36.26
2019-03-25T09:40:56.723Z,35.85
2019-03-25T09:43:27.816Z,36.41
2019-03-25T09:45:58.857Z,36.66
2019-03-25T09:48:29.927Z,35.82
2019-03-25T09:51:01.021Z,36.19
2019-03-25T09:53:32.283Z,36.12
2019-03-25T09:56:03.427Z,35.54
2019-03-25T09:58:36.468Z,34.99
2019-03-25T10:01:07.194Z,33.98
2019-03-25T10:03:38.420Z,33.97
2019-03-25T10:06:09.611Z,35.19
2019-03-25T10:08:41.875Z,34.96
2019-03-25T10:11:12.978Z,34.91
2019-03-25T10:13:44.044Z,34.91
2019-03-25T10:16:15.328Z,34.58
2019-03-25T10:18:46.554Z,34.39
2019-03-25T10:21:17.629Z,33.97
2019-03-25T10:23:49.044Z,33.81
2019-03-25T10:26:20.233Z,34.00
2019-03-25T10:28:51.376Z,34.62
2019-03-25T10:31:22.509Z,34.40
2019-03-25T10:33:53.750Z,34.13
2019-03-25T10:36:24.870Z,34.50
2019-03-25T10:38:56.020Z,34.48
2019-03-25T10:41:27.221Z,33.97
2019-03-25T10:43:58.333Z,33.79
2019-03-25T10:46:29.388Z,33.77
2019-03-25T10:49:00.522Z,34.56
2019-03-25T10:51:31.814Z,34.49
2019-03-25T10:54:03.205Z,34.45
2019-03-25T10:56:34.243Z,34.77
2019-03-25T10:59:05.396Z,34.36
2019-03-25T11:01:37.097Z,34.02
2019-03-25T11:04:08.412Z,34.28
2019-03-25T11:06:39.636Z,34.47
2019-03-25T11:09:10.792Z,33.72
2019-03-25T11:11:45.402Z,33.94
2019-03-25T11:14:16.672Z,33.91
2019-03-25T11:16:48.046Z,33.45
2019-03-25T11:19:19.527Z,33.96
2019-03-25T11:21:51.027Z,34.32
2019-03-25T11:24:22.602Z,34.96
2019-03-25T11:26:53.720Z,34.91
2019-03-25T11:29:25.121Z,34.59
2019-03-25T11:31:56.371Z,35.04
2019-03-25T11:34:27.594Z,34.99
2019-03-25T11:36:58.581Z,34.93
2019-03-25T11:39:29.747Z,34.85
2019-03-25T11:42:00.874Z,34.75
2019-03-25T11:44:32.057Z,34.78
2019-03-25T11:47:04.844Z,34.59
2019-03-25T11:49:35.984Z,34.10
2019-03-25T11:52:09.886Z,33.60
2019-03-25T11:54:41.275Z,34.11
2019-03-25T11:57:12.479Z,33.20
2019-03-25T11:59:43.610Z,33.59
2019-03-25T12:02:17.829Z,34.30
2019-03-25T12:04:47.536Z,34.10
2019-03-25T12:07:22.535Z,34.51
2019-03-25T12:09:54.547Z,34.08
2019-03-25T12:12:25.555Z,34.37
2019-03-25T12:14:56.634Z,34.35
2019-03-25T12:17:27.900Z,34.26
2019-03-25T12:19:58.992Z,34.42
2019-03-25T12:22:30.058Z,34.39
2019-03-25T12:25:01.139Z,33.82
2019-03-25T12:27:32.671Z,33.44
2019-03-25T12:30:08.971Z,33.47
2019-03-25T12:32:39.967Z,33.63
2019-03-25T12:35:11.198Z,33.18
2019-03-25T12:37:42.578Z,33.93
2019-03-25T12:40:13.945Z,34.25
2019-03-25T12:42:45.294Z,34.81
2019-03-25T12:45:16.620Z,35.16
2019-03-25T12:47:47.861Z,35.26
2019-03-25T12:50:19.098Z,34.89
2019-03-25T12:52:51.326Z,34.53
2019-03-25T12:55:22.521Z,34.84
2019-03-25T12:57:53.640Z,35.17
2019-03-25T13:00:38.886Z,34.85
2019-03-25T13:03:10.081Z,34.97
2019-03-25T13:05:41.321Z,34.94
2019-03-25T13:08:12.399Z,35.07
2019-03-25T13:10:43.643Z,35.27
2019-03-25T13:13:15.040Z,35.43
2019-03-25T13:15:46.106Z,35.91
2019-03-25T13:18:17.324Z,36.05
2019-03-25T13:20:48.602Z,35.44
2019-03-25T13:23:19.673Z,35.59
2019-03-25T13:25:55.297Z,35.60
2019-03-25T13:28:26.415Z,35.74
2019-03-25T13:30:57.627Z,35.63
2019-03-25T13:33:30.860Z,35.07
2019-03-25T13:36:01.953Z,34.68
2019-03-25T13:38:33.043Z,34.42
2019-03-25T13:41:04.194Z,34.84
2019-03-25T13:43:35.229Z,34.80
2019-03-25T13:46:06.190Z,34.03
2019-03-25T13:48:37.409Z,33.47
2019-03-25T13:51:08.542Z,33.70
2019-03-25T13:53:39.599Z,33.68
2019-03-25T13:56:10.583Z,33.96
2019-03-25T13:58:41.752Z,34.25
2019-03-25T14:01:12.897Z,34.19
2019-03-25T14:03:44.020Z,34.00
2019-03-25T14:06:15.134Z,34.47
2019-03-25T14:08:46.109Z,34.90
2019-03-25T14:11:17.350Z,35.79
2019-03-25T14:13:49.485Z,36.19
2019-03-25T14:16:20.822Z,36.21
2019-03-25T14:18:52.029Z,35.70
2019-03-25T14:21:23.106Z,35.48
2019-03-25T14:23:54.252Z,35.41
2019-03-25T14:26:25.214Z,34.90
2019-03-25T14:28:56.231Z,34.55
2019-03-25T14:31:27.835Z,35.22
2019-03-25T14:33:58.835Z,36.01
2019-03-25T14:36:29.791Z,37.11
2019-03-25T14:39:01.071Z,37.80
2019-03-25T14:41:32.942Z,37.88
2019-03-25T14:44:04.016Z,37.88
2019-03-25T14:46:35.072Z,38.06
2019-03-25T14:49:06.214Z,38.29
2019-03-25T14:51:37.345Z,38.54
2019-03-25T14:54:08.393Z,38.12
2019-03-25T14:56:39.384Z,38.33
2019-03-25T14:59:10.469Z,38.30
2019-03-25T15:01:41.503Z,38.55
2019-03-25T15:04:12.470Z,37.48
2019-03-25T15:06:43.808Z,37.65
2019-03-25T15:09:14.845Z,37.09
2019-03-25T15:11:45.881Z,36.68
2019-03-25T15:14:17.108Z,36.94
2019-03-25T15:16:48.240Z,37.26
2019-03-25T15:19:19.331Z,37.75
2019-03-25T15:21:51.692Z,38.17
2019-03-25T15:24:22.844Z,38.44
2019-03-25T15:26:54.062Z,39.38
2019-03-25T15:29:25.146Z,40.40
2019-03-25T15:31:56.307Z,41.10
2019-03-25T15:34:27.320Z,42.06
2019-03-25T15:36:58.373Z,42.70
2019-03-25T15:39:29.523Z,44.33
2019-03-25T15:42:00.672Z,45.26
2019-03-25T15:44:32.207Z,46.40
2019-03-25T15:47:03.714Z,47.38
2019-03-25T15:49:35.755Z,48.40
2019-03-25T15:52:06.798Z,49.12
2019-03-25T15:54:37.914Z,50.00
2019-03-25T15:57:08.944Z,50.84
2019-03-25T15:59:40.151Z,51.35
2019-03-25T16:02:11.460Z,52.03
2019-03-25T16:04:42.572Z,52.48
2019-03-25T16:07:14.812Z,53.00
2019-03-25T16:09:46.311Z,53.27
2019-03-25T16:12:17.642Z,53.47
2019-03-25T16:14:48.683Z,53.58
2019-03-25T16:17:19.685Z,53.80
2019-03-25T16:19:51.088Z,53.85
2019-03-25T16:22:22.276Z,54.16
2019-03-25T16:24:53.262Z,54.37
2019-03-25T16:27:25.889Z,54.63
2019-03-25T16:29:56.992Z,54.71
2019-03-25T16:32:29.054Z,54.80
2019-03-25T16:35:00.333Z,54.85
2019-03-25T16:37:31.360Z,54.83
2019-03-25T16:40:02.435Z,54.98
2019-03-25T16:42:33.571Z,55.03
2019-03-25T16:45:05.243Z,54.95
2019-03-25T16:47:36.339Z,55.01
2019-03-25T16:50:07.747Z,55.05
2019-03-25T16:52:38.759Z,55.12
2019-03-25T16:55:09.829Z,55.50
2019-03-25T16:57:40.854Z,55.64
2019-03-25T17:00:12.010Z,55.55
2019-03-25T17:02:43.264Z,56.08
2019-03-25T17:05:14.368Z,56.79
2019-03-25T17:07:45.553Z,57.92
2019-03-25T17:10:16.495Z,57.73
2019-03-25T17:12:47.751Z,57.11
2019-03-25T17:15:18.940Z,58.36
2019-03-25T17:17:50.216Z,59.24
2019-03-25T17:20:21.380Z,59.58
2019-03-25T17:22:52.518Z,60.23
2019-03-25T17:25:23.586Z,60.42
2019-03-25T17:27:54.680Z,60.57
2019-03-25T17:30:25.969Z,61.26
2019-03-25T17:32:57.088Z,62.24
2019-03-25T17:35:28.321Z,63.04
2019-03-25T17:37:59.519Z,63.50
2019-03-25T17:40:30.579Z,63.99
2019-03-25T17:43:01.772Z,63.74
2019-03-25T17:45:32.830Z,64.17
2019-03-25T17:48:04.247Z,63.54
2019-03-25T17:50:35.290Z,62.38
2019-03-25T17:53:06.533Z,61.76
2019-03-25T17:55:37.614Z,61.62
2019-03-25T17:58:08.631Z,61.54
2019-03-25T18:00:51.933Z,61.04
2019-03-25T18:03:24.153Z,61.56
2019-03-25T18:05:55.191Z,61.70
2019-03-25T18:08:26.343Z,61.69
2019-03-25T18:10:57.421Z,61.79
2019-03-25T18:13:28.428Z,61.69
2019-03-25T18:15:59.442Z,62.16
2019-03-25T18:18:30.584Z,61.85
2019-03-25T18:21:01.652Z,61.87
2019-03-25T18:23:32.641Z,62.34
2019-03-25T18:26:03.739Z,62.35
2019-03-25T18:28:34.777Z,62.21
2019-03-25T18:31:05.922Z,61.99
2019-03-25T18:33:37.513Z,62.62
2019-03-25T18:36:10.288Z,64.16
2019-03-25T18:38:41.332Z,62.62
2019-03-25T18:41:12.441Z,62.45
2019-03-25T18:43:43.472Z,62.77
2019-03-25T18:46:14.702Z,64.31
2019-03-25T18:48:45.862Z,63.89
2019-03-25T18:51:16.949Z,63.35
2019-03-25T18:53:47.964Z,64.59
2019-03-25T18:56:19.143Z,63.55
2019-03-25T18:58:50.361Z,62.93
2019-03-25T19:01:21.821Z,61.99
2019-03-25T19:03:52.997Z,63.67
2019-03-25T19:06:24.221Z,62.15
2019-03-25T19:08:55.353Z,62.66
2019-03-25T19:11:31.035Z,61.67
2019-03-25T19:13:59.154Z,62.52
2019-03-25T19:16:30.394Z,63.09
2019-03-25T19:19:01.790Z,62.92
2019-03-25T19:21:33.047Z,63.57
2019-03-25T19:24:04.247Z,63.83
2019-03-25T19:26:35.309Z,64.79
2019-03-25T19:29:06.350Z,65.66
2019-03-25T19:31:37.411Z,65.97
2019-03-25T19:34:08.508Z,66.50
2019-03-25T19:36:39.670Z,66.34
2019-03-25T19:39:10.853Z,67.05
2019-03-25T19:41:41.986Z,67.46
2019-03-25T19:44:13.020Z,67.83
2019-03-25T19:46:44.488Z,67.92
2019-03-25T19:49:15.973Z,68.22
2019-03-25T19:51:48.300Z,68.19
2019-03-25T19:54:19.521Z,67.84
2019-03-25T19:56:50.560Z,68.19
2019-03-25T19:59:21.663Z,67.79
2019-03-25T20:01:52.982Z,68.21
2019-03-25T20:04:24.193Z,68.35
2019-03-25T20:06:55.250Z,68.43
2019-03-25T20:09:26.325Z,68.67
2019-03-25T20:11:57.689Z,68.53
2019-03-25T20:14:30.055Z,69.09
2019-03-25T20:17:01.271Z,69.39
2019-03-25T20:19:32.502Z,69.62
2019-03-25T20:22:04.607Z,70.27
2019-03-25T20:24:35.681Z,70.13
2019-03-25T20:27:06.761Z,70.54
2019-03-25T20:29:37.868Z,70.54
2019-03-25T20:32:09.195Z,70.68
2019-03-25T20:34:40.450Z,71.10
2019-03-25T20:37:11.652Z,71.02
2019-03-25T20:39:43.059Z,71.24
2019-03-25T20:42:14.590Z,72.04
2019-03-25T20:44:45.660Z,72.08
2019-03-25T20:47:17.196Z,72.40
2019-03-25T20:49:48.385Z,72.48
2019-03-25T20:52:19.892Z,72.59
2019-03-25T20:54:51.189Z,73.22
2019-03-25T20:57:22.422Z,73.65
2019-03-25T20:59:53.626Z,74.37
2019-03-25T21:02:24.826Z,74.37
2019-03-25T21:04:56.021Z,74.37
2019-03-25T21:07:27.096Z,74.39
2019-03-25T21:09:58.148Z,74.49
2019-03-25T21:12:29.270Z,74.49
2019-03-25T21:15:00.358Z,74.21
2019-03-25T21:17:31.460Z,73.80
2019-03-25T21:20:02.587Z,73.61
2019-03-25T21:22:33.844Z,72.61
2019-03-25T21:25:06.497Z,72.61
2019-03-25T21:27:37.830Z,72.57
2019-03-25T21:30:09.015Z,72.03
2019-03-25T21:32:40.599Z,71.64
2019-03-25T21:35:11.837Z,71.75
2019-03-25T21:37:43.106Z,71.51
2019-03-25T21:40:14.349Z,71.02
2019-03-25T21:42:45.544Z,71.27
2019-03-25T21:45:16.575Z,71.04
2019-03-25T21:47:47.829Z,70.73
2019-03-25T21:50:18.913Z,70.71
2019-03-25T21:52:50.130Z,70.62
2019-03-25T21:55:21.351Z,70.51
2019-03-25T21:57:52.541Z,70.35
2019-03-25T22:00:23.770Z,70.34
2019-03-25T22:02:54.885Z,70.63
2019-03-25T22:05:26.044Z,70.24
2019-03-25T22:07:57.171Z,70.24
2019-03-25T22:10:28.325Z,69.93
2019-03-25T22:12:59.342Z,69.76
2019-03-25T22:15:30.555Z,69.89
2019-03-25T22:18:01.629Z,70.07
2019-03-25T22:20:32.623Z,70.26
2019-03-25T22:23:03.585Z,70.42
2019-03-25T22:25:34.592Z,70.52
2019-03-25T22:28:05.620Z,70.05
2019-03-25T22:30:36.601Z,69.99
2019-03-25T22:33:07.623Z,70.24
2019-03-25T22:35:38.656Z,69.88
2019-03-25T22:38:09.719Z,69.98
2019-03-25T22:40:40.873Z,70.04
2019-03-25T22:43:11.804Z,69.74
2019-03-25T22:45:42.733Z,69.72
2019-03-25T22:48:13.685Z,69.69
2019-03-25T22:50:46.362Z,69.64
2019-03-25T22:53:17.292Z,69.61
2019-03-25T22:56:33.834Z,69.75
2019-03-25T22:59:04.897Z,69.69
2019-03-25T23:01:35.887Z,69.91
2019-03-25T23:04:08.048Z,69.72
2019-03-25T23:06:39.090Z,69.62
2019-03-25T23:09:10.027Z,69.72
2019-03-25T23:11:40.960Z,69.84
2019-03-25T23:14:11.909Z,70.22
2019-03-25T23:16:42.838Z,70.21
2019-03-25T23:19:13.845Z,70.37
2019-03-25T23:21:44.923Z,70.43
2019-03-25T23:24:15.968Z,70.68
2019-03-25T23:26:46.958Z,71.16
2019-03-25T23:29:17.957Z,71.16
2019-03-25T23:31:49.579Z,71.01
2019-03-25T23:34:20.552Z,71.63
2019-03-25T23:36:51.585Z,71.88
2019-03-25T23:39:25.173Z,71.98
2019-03-25T23:41:56.354Z,71.66
2019-03-25T23:44:27.391Z,71.70
2019-03-25T23:46:58.422Z,72.12
2019-03-25T23:49:29.363Z,72.01
2019-03-25T23:52:00.396Z,72.01
2019-03-25T23:54:31.335Z,71.90
2019-03-25T23:57:02.278Z,72.11
2019-03-25T23:59:33.220Z,72.26
